sensor_id;sensor_type;location;lat;lon;timestamp;P1;durP1;ratioP1;P2;durP2;ratioP2
9559;SDS011;4818;50.860;4.648;2023-08-20T00:00:38;8.52;;;1.20;;
9559;SDS011;4818;50.860;4.648;2023-08-20T00:03:10;7.53;;;0.98;;
9559;SDS011;4818;50.860;4.648;2023-08-20T00:05:37;10.45;;;1.42;;
9559;SDS011;4818;50.860;4.648;2023-08-20T00:08:03;5.07;;;0.75;;
9559;SDS011;4818;50.860;4.648;2023-08-20T00:10:30;5.97;;;1.55;;
9559;SDS011;4818;50.860;4.648;2023-08-20T00:12:56;7.18;;;0.68;;
9559;SDS011;4818;50.860;4.648;2023-08-20T00:15:22;8.32;;;0.75;;
9559;SDS011;4818;50.860;4.648;2023-08-20T00:17:51;4.53;;;0.70;;
9559;SDS011;4818;50.860;4.648;2023-08-20T00:20:18;6.85;;;0.88;;
9559;SDS011;4818;50.860;4.648;2023-08-20T00:22:44;3.50;;;0.70;;
9559;SDS011;4818;50.860;4.648;2023-08-20T00:25:12;7.40;;;0.95;;
9559;SDS011;4818;50.860;4.648;2023-08-20T00:27:41;9.10;;;1.10;;
9559;SDS011;4818;50.860;4.648;2023-08-20T00:32:34;6.00;;;0.70;;
9559;SDS011;4818;50.860;4.648;2023-08-20T00:35:00;4.28;;;0.68;;
9559;SDS011;4818;50.860;4.648;2023-08-20T00:37:30;7.03;;;0.77;;
9559;SDS011;4818;50.860;4.648;2023-08-20T00:39:56;3.97;;;0.60;;
9559;SDS011;4818;50.860;4.648;2023-08-20T00:42:25;3.92;;;0.68;;
9559;SDS011;4818;50.860;4.648;2023-08-20T00:44:52;9.13;;;1.65;;
9559;SDS011;4818;50.860;4.648;2023-08-20T00:47:18;5.85;;;1.20;;
9559;SDS011;4818;50.860;4.648;2023-08-20T00:49:44;7.40;;;1.20;;
9559;SDS011;4818;50.860;4.648;2023-08-20T00:52:12;5.22;;;1.00;;
9559;SDS011;4818;50.860;4.648;2023-08-20T00:54:39;9.70;;;1.92;;
9559;SDS011;4818;50.860;4.648;2023-08-20T00:57:06;3.22;;;0.80;;
9559;SDS011;4818;50.860;4.648;2023-08-20T00:59:32;8.30;;;1.13;;
9559;SDS011;4818;50.860;4.648;2023-08-20T01:01:59;6.72;;;0.95;;
9559;SDS011;4818;50.860;4.648;2023-08-20T01:04:25;6.32;;;0.88;;
9559;SDS011;4818;50.860;4.648;2023-08-20T01:07:01;7.78;;;0.90;;
9559;SDS011;4818;50.860;4.648;2023-08-20T01:12:02;5.50;;;1.42;;
9559;SDS011;4818;50.860;4.648;2023-08-20T01:14:29;7.85;;;1.10;;
9559;SDS011;4818;50.860;4.648;2023-08-20T01:16:55;6.57;;;0.82;;
9559;SDS011;4818;50.860;4.648;2023-08-20T01:19:21;7.05;;;1.45;;
9559;SDS011;4818;50.860;4.648;2023-08-20T01:27:26;7.78;;;1.05;;
9559;SDS011;4818;50.860;4.648;2023-08-20T01:29:54;9.35;;;1.25;;
9559;SDS011;4818;50.860;4.648;2023-08-20T01:32:22;6.00;;;1.10;;
9559;SDS011;4818;50.860;4.648;2023-08-20T01:34:48;8.32;;;0.88;;
9559;SDS011;4818;50.860;4.648;2023-08-20T01:37:14;10.82;;;1.27;;
9559;SDS011;4818;50.860;4.648;2023-08-20T01:39:41;4.07;;;0.90;;
9559;SDS011;4818;50.860;4.648;2023-08-20T01:42:07;6.15;;;0.95;;
9559;SDS011;4818;50.860;4.648;2023-08-20T01:44:33;4.05;;;0.88;;
9559;SDS011;4818;50.860;4.648;2023-08-20T01:46:59;6.10;;;1.50;;
9559;SDS011;4818;50.860;4.648;2023-08-20T01:49:25;9.40;;;0.80;;
9559;SDS011;4818;50.860;4.648;2023-08-20T01:51:51;12.38;;;1.63;;
9559;SDS011;4818;50.860;4.648;2023-08-20T01:54:17;9.65;;;0.52;;
9559;SDS011;4818;50.860;4.648;2023-08-20T01:56:43;5.65;;;0.93;;
9559;SDS011;4818;50.860;4.648;2023-08-20T01:59:10;5.80;;;1.02;;
9559;SDS011;4818;50.860;4.648;2023-08-20T02:01:36;5.72;;;0.75;;
9559;SDS011;4818;50.860;4.648;2023-08-20T02:04:02;7.30;;;0.90;;
9559;SDS011;4818;50.860;4.648;2023-08-20T02:06:28;7.00;;;0.85;;
9559;SDS011;4818;50.860;4.648;2023-08-20T02:08:54;6.00;;;1.00;;
9559;SDS011;4818;50.860;4.648;2023-08-20T02:11:21;5.43;;;0.68;;
9559;SDS011;4818;50.860;4.648;2023-08-20T02:13:47;7.90;;;1.10;;
9559;SDS011;4818;50.860;4.648;2023-08-20T02:16:13;6.70;;;1.00;;
9559;SDS011;4818;50.860;4.648;2023-08-20T02:18:41;10.93;;;1.50;;
9559;SDS011;4818;50.860;4.648;2023-08-20T02:21:07;5.47;;;1.00;;
9559;SDS011;4818;50.860;4.648;2023-08-20T02:23:33;4.10;;;0.60;;
9559;SDS011;4818;50.860;4.648;2023-08-20T02:25:59;4.63;;;0.50;;
9559;SDS011;4818;50.860;4.648;2023-08-20T02:28:26;2.45;;;0.80;;
9559;SDS011;4818;50.860;4.648;2023-08-20T02:30:52;6.70;;;1.02;;
9559;SDS011;4818;50.860;4.648;2023-08-20T02:33:18;3.67;;;0.95;;
9559;SDS011;4818;50.860;4.648;2023-08-20T02:35:44;6.35;;;0.68;;
9559;SDS011;4818;50.860;4.648;2023-08-20T02:38:10;5.88;;;0.93;;
9559;SDS011;4818;50.860;4.648;2023-08-20T02:40:40;8.15;;;0.82;;
9559;SDS011;4818;50.860;4.648;2023-08-20T02:43:06;7.70;;;1.65;;
9559;SDS011;4818;50.860;4.648;2023-08-20T02:45:32;6.20;;;1.60;;
9559;SDS011;4818;50.860;4.648;2023-08-20T02:47:59;4.35;;;0.70;;
9559;SDS011;4818;50.860;4.648;2023-08-20T02:50:25;7.40;;;1.20;;
9559;SDS011;4818;50.860;4.648;2023-08-20T02:52:51;6.40;;;0.60;;
9559;SDS011;4818;50.860;4.648;2023-08-20T02:55:17;6.88;;;0.90;;
9559;SDS011;4818;50.860;4.648;2023-08-20T02:57:43;5.32;;;0.98;;
9559;SDS011;4818;50.860;4.648;2023-08-20T03:00:09;6.82;;;0.65;;
9559;SDS011;4818;50.860;4.648;2023-08-20T03:02:36;8.48;;;0.73;;
9559;SDS011;4818;50.860;4.648;2023-08-20T03:05:02;8.32;;;1.05;;
9559;SDS011;4818;50.860;4.648;2023-08-20T03:07:30;4.75;;;0.90;;
9559;SDS011;4818;50.860;4.648;2023-08-20T03:09:57;7.05;;;1.08;;
9559;SDS011;4818;50.860;4.648;2023-08-20T03:12:23;9.25;;;0.73;;
9559;SDS011;4818;50.860;4.648;2023-08-20T03:14:49;11.57;;;1.00;;
9559;SDS011;4818;50.860;4.648;2023-08-20T03:17:15;10.15;;;1.27;;
9559;SDS011;4818;50.860;4.648;2023-08-20T03:19:53;6.10;;;1.20;;
9559;SDS011;4818;50.860;4.648;2023-08-20T03:22:20;13.87;;;1.40;;
9559;SDS011;4818;50.860;4.648;2023-08-20T03:24:46;10.15;;;1.00;;
9559;SDS011;4818;50.860;4.648;2023-08-20T03:27:12;5.65;;;1.40;;
9559;SDS011;4818;50.860;4.648;2023-08-20T03:29:38;5.18;;;1.23;;
9559;SDS011;4818;50.860;4.648;2023-08-20T03:32:04;7.20;;;1.35;;
9559;SDS011;4818;50.860;4.648;2023-08-20T03:34:31;6.70;;;1.55;;
9559;SDS011;4818;50.860;4.648;2023-08-20T03:36:57;8.43;;;1.00;;
9559;SDS011;4818;50.860;4.648;2023-08-20T03:39:23;5.60;;;1.15;;
9559;SDS011;4818;50.860;4.648;2023-08-20T03:41:49;6.47;;;0.90;;
9559;SDS011;4818;50.860;4.648;2023-08-20T03:44:16;7.20;;;0.70;;
9559;SDS011;4818;50.860;4.648;2023-08-20T03:46:42;11.02;;;1.15;;
9559;SDS011;4818;50.860;4.648;2023-08-20T03:49:08;7.70;;;0.90;;
9559;SDS011;4818;50.860;4.648;2023-08-20T03:51:34;7.50;;;1.00;;
9559;SDS011;4818;50.860;4.648;2023-08-20T03:54:00;4.28;;;0.77;;
9559;SDS011;4818;50.860;4.648;2023-08-20T03:56:26;5.90;;;0.93;;
9559;SDS011;4818;50.860;4.648;2023-08-20T03:58:52;7.25;;;1.40;;
9559;SDS011;4818;50.860;4.648;2023-08-20T04:01:18;8.60;;;1.00;;
9559;SDS011;4818;50.860;4.648;2023-08-20T04:03:48;5.70;;;0.80;;
9559;SDS011;4818;50.860;4.648;2023-08-20T04:06:14;6.38;;;1.48;;
9559;SDS011;4818;50.860;4.648;2023-08-20T04:08:40;6.60;;;1.17;;
9559;SDS011;4818;50.860;4.648;2023-08-20T04:13:37;4.28;;;0.88;;
9559;SDS011;4818;50.860;4.648;2023-08-20T04:16:05;3.42;;;1.00;;
9559;SDS011;4818;50.860;4.648;2023-08-20T04:18:31;5.97;;;1.00;;
9559;SDS011;4818;50.860;4.648;2023-08-20T04:20:57;4.22;;;1.55;;
9559;SDS011;4818;50.860;4.648;2023-08-20T04:23:23;7.93;;;1.65;;
9559;SDS011;4818;50.860;4.648;2023-08-20T04:25:50;4.50;;;0.93;;
9559;SDS011;4818;50.860;4.648;2023-08-20T04:28:16;3.75;;;1.00;;
9559;SDS011;4818;50.860;4.648;2023-08-20T04:30:42;9.73;;;1.27;;
9559;SDS011;4818;50.860;4.648;2023-08-20T04:33:09;3.85;;;1.38;;
9559;SDS011;4818;50.860;4.648;2023-08-20T04:35:35;6.78;;;1.63;;
9559;SDS011;4818;50.860;4.648;2023-08-20T04:38:02;5.35;;;1.15;;
9559;SDS011;4818;50.860;4.648;2023-08-20T04:40:28;4.10;;;1.00;;
9559;SDS011;4818;50.860;4.648;2023-08-20T04:42:54;3.92;;;1.35;;
9559;SDS011;4818;50.860;4.648;2023-08-20T04:45:20;4.93;;;0.80;;
9559;SDS011;4818;50.860;4.648;2023-08-20T04:47:47;5.85;;;1.23;;
9559;SDS011;4818;50.860;4.648;2023-08-20T04:50:13;7.60;;;1.20;;
9559;SDS011;4818;50.860;4.648;2023-08-20T04:52:39;3.10;;;1.05;;
9559;SDS011;4818;50.860;4.648;2023-08-20T04:55:06;5.55;;;1.33;;
9559;SDS011;4818;50.860;4.648;2023-08-20T04:57:33;4.18;;;1.10;;
9559;SDS011;4818;50.860;4.648;2023-08-20T04:59:59;3.53;;;0.80;;
9559;SDS011;4818;50.860;4.648;2023-08-20T05:02:26;5.25;;;0.93;;
9559;SDS011;4818;50.860;4.648;2023-08-20T05:04:52;5.07;;;1.17;;
9559;SDS011;4818;50.860;4.648;2023-08-20T05:07:18;11.18;;;1.40;;
9559;SDS011;4818;50.860;4.648;2023-08-20T05:09:45;5.97;;;1.27;;
9559;SDS011;4818;50.860;4.648;2023-08-20T05:12:14;6.68;;;1.65;;
9559;SDS011;4818;50.860;4.648;2023-08-20T05:14:43;15.43;;;2.33;;
9559;SDS011;4818;50.860;4.648;2023-08-20T05:17:10;6.30;;;1.05;;
9559;SDS011;4818;50.860;4.648;2023-08-20T05:19:39;2.88;;;0.70;;
9559;SDS011;4818;50.860;4.648;2023-08-20T05:22:08;4.95;;;1.05;;
9559;SDS011;4818;50.860;4.648;2023-08-20T05:24:37;3.88;;;1.10;;
9559;SDS011;4818;50.860;4.648;2023-08-20T05:27:04;3.50;;;1.08;;
9559;SDS011;4818;50.860;4.648;2023-08-20T05:29:30;3.05;;;0.77;;
9559;SDS011;4818;50.860;4.648;2023-08-20T05:31:57;4.18;;;0.93;;
9559;SDS011;4818;50.860;4.648;2023-08-20T05:34:23;4.22;;;0.63;;
9559;SDS011;4818;50.860;4.648;2023-08-20T05:36:49;9.60;;;2.05;;
9559;SDS011;4818;50.860;4.648;2023-08-20T05:39:15;2.85;;;0.80;;
9559;SDS011;4818;50.860;4.648;2023-08-20T05:41:41;4.43;;;0.82;;
9559;SDS011;4818;50.860;4.648;2023-08-20T05:44:08;4.05;;;0.65;;
9559;SDS011;4818;50.860;4.648;2023-08-20T05:46:34;6.07;;;1.00;;
9559;SDS011;4818;50.860;4.648;2023-08-20T05:49:00;5.25;;;1.35;;
9559;SDS011;4818;50.860;4.648;2023-08-20T05:51:26;4.50;;;0.93;;
9559;SDS011;4818;50.860;4.648;2023-08-20T05:53:52;4.03;;;0.80;;
9559;SDS011;4818;50.860;4.648;2023-08-20T05:56:18;8.20;;;0.70;;
9559;SDS011;4818;50.860;4.648;2023-08-20T05:58:45;5.20;;;1.23;;
9559;SDS011;4818;50.860;4.648;2023-08-20T06:01:11;3.63;;;0.80;;
9559;SDS011;4818;50.860;4.648;2023-08-20T06:03:37;9.32;;;1.55;;
9559;SDS011;4818;50.860;4.648;2023-08-20T06:06:03;3.58;;;0.80;;
9559;SDS011;4818;50.860;4.648;2023-08-20T06:08:29;2.45;;;0.88;;
9559;SDS011;4818;50.860;4.648;2023-08-20T06:10:55;6.70;;;0.88;;
9559;SDS011;4818;50.860;4.648;2023-08-20T06:13:22;3.58;;;0.75;;
9559;SDS011;4818;50.860;4.648;2023-08-20T06:15:48;2.55;;;0.77;;
9559;SDS011;4818;50.860;4.648;2023-08-20T06:18:14;6.13;;;1.10;;
9559;SDS011;4818;50.860;4.648;2023-08-20T06:20:41;4.55;;;1.00;;
9559;SDS011;4818;50.860;4.648;2023-08-20T06:23:07;3.83;;;0.70;;
9559;SDS011;4818;50.860;4.648;2023-08-20T06:25:33;4.30;;;0.98;;
9559;SDS011;4818;50.860;4.648;2023-08-20T06:27:59;7.38;;;1.00;;
9559;SDS011;4818;50.860;4.648;2023-08-20T06:30:28;3.90;;;0.93;;
9559;SDS011;4818;50.860;4.648;2023-08-20T06:32:55;4.90;;;1.27;;
9559;SDS011;4818;50.860;4.648;2023-08-20T06:35:21;4.03;;;0.73;;
9559;SDS011;4818;50.860;4.648;2023-08-20T06:37:48;6.85;;;1.08;;
9559;SDS011;4818;50.860;4.648;2023-08-20T06:40:15;3.15;;;0.80;;
9559;SDS011;4818;50.860;4.648;2023-08-20T06:42:41;5.50;;;1.17;;
9559;SDS011;4818;50.860;4.648;2023-08-20T06:45:08;5.32;;;0.98;;
9559;SDS011;4818;50.860;4.648;2023-08-20T06:47:34;4.28;;;0.80;;
9559;SDS011;4818;50.860;4.648;2023-08-20T06:50:01;3.97;;;0.60;;
9559;SDS011;4818;50.860;4.648;2023-08-20T06:52:28;5.15;;;0.68;;
9559;SDS011;4818;50.860;4.648;2023-08-20T06:54:54;5.88;;;0.63;;
9559;SDS011;4818;50.860;4.648;2023-08-20T06:57:20;5.75;;;0.90;;
9559;SDS011;4818;50.860;4.648;2023-08-20T06:59:47;4.32;;;0.70;;
9559;SDS011;4818;50.860;4.648;2023-08-20T07:02:13;3.25;;;0.50;;
9559;SDS011;4818;50.860;4.648;2023-08-20T07:04:39;6.88;;;1.00;;
9559;SDS011;4818;50.860;4.648;2023-08-20T07:07:08;3.65;;;1.10;;
9559;SDS011;4818;50.860;4.648;2023-08-20T07:09:34;8.25;;;1.17;;
9559;SDS011;4818;50.860;4.648;2023-08-20T07:12:01;5.65;;;0.75;;
9559;SDS011;4818;50.860;4.648;2023-08-20T07:14:27;3.58;;;0.60;;
9559;SDS011;4818;50.860;4.648;2023-08-20T07:16:55;4.95;;;0.63;;
9559;SDS011;4818;50.860;4.648;2023-08-20T07:19:21;5.50;;;1.17;;
9559;SDS011;4818;50.860;4.648;2023-08-20T07:21:47;4.32;;;0.60;;
9559;SDS011;4818;50.860;4.648;2023-08-20T07:24:13;5.38;;;0.43;;
9559;SDS011;4818;50.860;4.648;2023-08-20T07:26:40;4.93;;;0.40;;
9559;SDS011;4818;50.860;4.648;2023-08-20T07:29:06;4.30;;;0.50;;
9559;SDS011;4818;50.860;4.648;2023-08-20T07:31:32;3.10;;;0.57;;
9559;SDS011;4818;50.860;4.648;2023-08-20T07:34:00;3.25;;;0.50;;
9559;SDS011;4818;50.860;4.648;2023-08-20T07:36:26;2.80;;;0.35;;
9559;SDS011;4818;50.860;4.648;2023-08-20T07:38:53;2.45;;;0.40;;
9559;SDS011;4818;50.860;4.648;2023-08-20T07:41:20;3.88;;;0.45;;
9559;SDS011;4818;50.860;4.648;2023-08-20T07:43:47;2.60;;;0.35;;
9559;SDS011;4818;50.860;4.648;2023-08-20T07:46:13;3.85;;;0.32;;
9559;SDS011;4818;50.860;4.648;2023-08-20T07:48:40;2.85;;;0.30;;
9559;SDS011;4818;50.860;4.648;2023-08-20T07:51:06;3.25;;;0.20;;
9559;SDS011;4818;50.860;4.648;2023-08-20T07:53:33;1.63;;;0.30;;
9559;SDS011;4818;50.860;4.648;2023-08-20T07:55:59;2.55;;;0.20;;
9559;SDS011;4818;50.860;4.648;2023-08-20T07:58:26;3.22;;;0.30;;
9559;SDS011;4818;50.860;4.648;2023-08-20T08:00:53;2.22;;;0.30;;
9559;SDS011;4818;50.860;4.648;2023-08-20T08:03:21;1.60;;;0.28;;
9559;SDS011;4818;50.860;4.648;2023-08-20T08:05:47;4.13;;;0.52;;
9559;SDS011;4818;50.860;4.648;2023-08-20T08:08:17;1.27;;;0.20;;
9559;SDS011;4818;50.860;4.648;2023-08-20T08:10:44;1.75;;;0.20;;
9559;SDS011;4818;50.860;4.648;2023-08-20T08:13:11;0.47;;;0.15;;
9559;SDS011;4818;50.860;4.648;2023-08-20T08:15:37;2.50;;;0.20;;
9559;SDS011;4818;50.860;4.648;2023-08-20T08:18:04;1.20;;;0.20;;
9559;SDS011;4818;50.860;4.648;2023-08-20T08:20:30;2.60;;;0.20;;
9559;SDS011;4818;50.860;4.648;2023-08-20T08:22:57;1.27;;;0.20;;
9559;SDS011;4818;50.860;4.648;2023-08-20T08:25:23;2.10;;;0.20;;
9559;SDS011;4818;50.860;4.648;2023-08-20T08:27:50;1.60;;;0.30;;
9559;SDS011;4818;50.860;4.648;2023-08-20T08:30:16;1.33;;;0.30;;
9559;SDS011;4818;50.860;4.648;2023-08-20T08:32:43;1.17;;;0.40;;
9559;SDS011;4818;50.860;4.648;2023-08-20T08:35:09;1.70;;;0.40;;
9559;SDS011;4818;50.860;4.648;2023-08-20T08:37:35;2.28;;;0.40;;
9559;SDS011;4818;50.860;4.648;2023-08-20T08:40:02;2.88;;;0.50;;
9559;SDS011;4818;50.860;4.648;2023-08-20T08:42:32;4.47;;;0.50;;
9559;SDS011;4818;50.860;4.648;2023-08-20T08:45:02;4.88;;;0.40;;
9559;SDS011;4818;50.860;4.648;2023-08-20T08:47:29;2.00;;;0.30;;
9559;SDS011;4818;50.860;4.648;2023-08-20T08:49:56;1.98;;;0.30;;
9559;SDS011;4818;50.860;4.648;2023-08-20T08:52:22;2.80;;;0.52;;
9559;SDS011;4818;50.860;4.648;2023-08-20T08:54:49;2.38;;;0.30;;
9559;SDS011;4818;50.860;4.648;2023-08-20T08:57:16;3.00;;;0.38;;
9559;SDS011;4818;50.860;4.648;2023-08-20T08:59:45;4.93;;;0.88;;
9559;SDS011;4818;50.860;4.648;2023-08-20T09:02:19;2.70;;;0.52;;
9559;SDS011;4818;50.860;4.648;2023-08-20T09:04:48;4.07;;;0.63;;
9559;SDS011;4818;50.860;4.648;2023-08-20T09:07:15;3.95;;;0.50;;
9559;SDS011;4818;50.860;4.648;2023-08-20T09:09:42;2.90;;;0.43;;
9559;SDS011;4818;50.860;4.648;2023-08-20T09:12:13;3.20;;;0.68;;
9559;SDS011;4818;50.860;4.648;2023-08-20T09:14:39;4.32;;;0.55;;
9559;SDS011;4818;50.860;4.648;2023-08-20T09:17:06;2.75;;;0.30;;
9559;SDS011;4818;50.860;4.648;2023-08-20T09:19:35;1.88;;;0.30;;
9559;SDS011;4818;50.860;4.648;2023-08-20T09:22:02;3.97;;;0.40;;
9559;SDS011;4818;50.860;4.648;2023-08-20T09:24:33;3.13;;;0.47;;
9559;SDS011;4818;50.860;4.648;2023-08-20T09:27:03;2.22;;;0.43;;
9559;SDS011;4818;50.860;4.648;2023-08-20T09:29:33;2.05;;;0.40;;
9559;SDS011;4818;50.860;4.648;2023-08-20T09:32:00;2.22;;;0.40;;
9559;SDS011;4818;50.860;4.648;2023-08-20T09:34:37;1.35;;;0.20;;
9559;SDS011;4818;50.860;4.648;2023-08-20T09:37:14;2.38;;;0.30;;
9559;SDS011;4818;50.860;4.648;2023-08-20T09:39:41;1.48;;;0.28;;
9559;SDS011;4818;50.860;4.648;2023-08-20T09:42:08;1.48;;;0.35;;
9559;SDS011;4818;50.860;4.648;2023-08-20T09:44:44;1.77;;;0.40;;
9559;SDS011;4818;50.860;4.648;2023-08-20T09:47:12;2.13;;;0.30;;
9559;SDS011;4818;50.860;4.648;2023-08-20T09:49:42;0.88;;;0.22;;
9559;SDS011;4818;50.860;4.648;2023-08-20T09:52:12;1.52;;;0.28;;
9559;SDS011;4818;50.860;4.648;2023-08-20T09:54:50;1.52;;;0.30;;
9559;SDS011;4818;50.860;4.648;2023-08-20T09:57:36;1.58;;;0.43;;
9559;SDS011;4818;50.860;4.648;2023-08-20T10:00:03;1.25;;;0.30;;
9559;SDS011;4818;50.860;4.648;2023-08-20T10:02:31;1.77;;;0.40;;
9559;SDS011;4818;50.860;4.648;2023-08-20T10:04:58;2.90;;;0.30;;
9559;SDS011;4818;50.860;4.648;2023-08-20T10:07:28;2.72;;;0.35;;
9559;SDS011;4818;50.860;4.648;2023-08-20T10:09:59;2.60;;;0.50;;
9559;SDS011;4818;50.860;4.648;2023-08-20T10:12:29;2.50;;;0.30;;
9559;SDS011;4818;50.860;4.648;2023-08-20T10:14:56;1.58;;;0.20;;
9559;SDS011;4818;50.860;4.648;2023-08-20T10:17:23;2.28;;;0.30;;
9559;SDS011;4818;50.860;4.648;2023-08-20T10:19:52;2.55;;;0.30;;
9559;SDS011;4818;50.860;4.648;2023-08-20T10:22:19;2.75;;;0.30;;
9559;SDS011;4818;50.860;4.648;2023-08-20T10:24:54;1.25;;;0.30;;
9559;SDS011;4818;50.860;4.648;2023-08-20T10:27:26;1.75;;;0.32;;
9559;SDS011;4818;50.860;4.648;2023-08-20T10:29:53;2.05;;;0.30;;
9559;SDS011;4818;50.860;4.648;2023-08-20T10:33:02;2.97;;;0.30;;
9559;SDS011;4818;50.860;4.648;2023-08-20T10:35:10;1.55;;;0.30;;
9559;SDS011;4818;50.860;4.648;2023-08-20T10:37:37;2.03;;;0.40;;
9559;SDS011;4818;50.860;4.648;2023-08-20T10:40:05;2.55;;;0.40;;
9559;SDS011;4818;50.860;4.648;2023-08-20T10:42:32;2.20;;;0.30;;
9559;SDS011;4818;50.860;4.648;2023-08-20T10:45:05;1.23;;;0.30;;
9559;SDS011;4818;50.860;4.648;2023-08-20T10:50:08;2.33;;;0.40;;
9559;SDS011;4818;50.860;4.648;2023-08-20T10:52:41;3.13;;;0.40;;
9559;SDS011;4818;50.860;4.648;2023-08-20T10:55:12;1.45;;;0.30;;
9559;SDS011;4818;50.860;4.648;2023-08-20T10:57:40;2.58;;;0.65;;
9559;SDS011;4818;50.860;4.648;2023-08-20T11:00:07;2.50;;;0.30;;
9559;SDS011;4818;50.860;4.648;2023-08-20T11:02:42;1.73;;;0.20;;
9559;SDS011;4818;50.860;4.648;2023-08-20T11:05:16;2.85;;;0.43;;
9559;SDS011;4818;50.860;4.648;2023-08-20T11:07:44;0.70;;;0.20;;
9559;SDS011;4818;50.860;4.648;2023-08-20T11:10:12;2.03;;;0.40;;
9559;SDS011;4818;50.860;4.648;2023-08-20T11:12:40;1.73;;;0.30;;
9559;SDS011;4818;50.860;4.648;2023-08-20T11:15:07;2.78;;;0.30;;
9559;SDS011;4818;50.860;4.648;2023-08-20T11:17:33;1.02;;;0.40;;
9559;SDS011;4818;50.860;4.648;2023-08-20T11:20:00;4.90;;;0.30;;
9559;SDS011;4818;50.860;4.648;2023-08-20T11:22:30;1.20;;;0.20;;
9559;SDS011;4818;50.860;4.648;2023-08-20T11:24:56;1.45;;;0.30;;
9559;SDS011;4818;50.860;4.648;2023-08-20T11:27:26;0.98;;;0.20;;
9559;SDS011;4818;50.860;4.648;2023-08-20T11:29:52;2.22;;;0.30;;
9559;SDS011;4818;50.860;4.648;2023-08-20T11:34:47;1.55;;;0.40;;
9559;SDS011;4818;50.860;4.648;2023-08-20T11:37:19;2.22;;;0.40;;
9559;SDS011;4818;50.860;4.648;2023-08-20T11:39:50;1.45;;;0.20;;
9559;SDS011;4818;50.860;4.648;2023-08-20T11:42:16;1.65;;;0.28;;
9559;SDS011;4818;50.860;4.648;2023-08-20T11:44:45;1.98;;;0.30;;
9559;SDS011;4818;50.860;4.648;2023-08-20T11:47:18;2.15;;;0.30;;
9559;SDS011;4818;50.860;4.648;2023-08-20T11:49:47;1.70;;;0.20;;
9559;SDS011;4818;50.860;4.648;2023-08-20T11:52:13;1.73;;;0.32;;
9559;SDS011;4818;50.860;4.648;2023-08-20T11:54:41;1.35;;;0.30;;
9559;SDS011;4818;50.860;4.648;2023-08-20T11:57:08;1.60;;;0.40;;
9559;SDS011;4818;50.860;4.648;2023-08-20T11:59:34;2.75;;;0.40;;
9559;SDS011;4818;50.860;4.648;2023-08-20T12:02:01;1.92;;;0.30;;
9559;SDS011;4818;50.860;4.648;2023-08-20T12:04:31;2.10;;;0.35;;
9559;SDS011;4818;50.860;4.648;2023-08-20T12:07:01;1.17;;;0.22;;
9559;SDS011;4818;50.860;4.648;2023-08-20T12:09:29;1.35;;;0.30;;
9559;SDS011;4818;50.860;4.648;2023-08-20T12:11:55;2.80;;;0.20;;
9559;SDS011;4818;50.860;4.648;2023-08-20T12:14:23;2.30;;;0.30;;
9559;SDS011;4818;50.860;4.648;2023-08-20T12:16:49;1.40;;;0.30;;
9559;SDS011;4818;50.860;4.648;2023-08-20T12:19:19;1.98;;;0.40;;
9559;SDS011;4818;50.860;4.648;2023-08-20T12:21:47;2.45;;;0.38;;
9559;SDS011;4818;50.860;4.648;2023-08-20T12:24:14;1.65;;;0.40;;
9559;SDS011;4818;50.860;4.648;2023-08-20T12:26:42;4.22;;;0.50;;
9559;SDS011;4818;50.860;4.648;2023-08-20T12:29:08;2.58;;;0.22;;
9559;SDS011;4818;50.860;4.648;2023-08-20T12:31:35;2.33;;;0.45;;
9559;SDS011;4818;50.860;4.648;2023-08-20T12:34:04;0.90;;;0.20;;
9559;SDS011;4818;50.860;4.648;2023-08-20T12:36:30;6.20;;;0.60;;
9559;SDS011;4818;50.860;4.648;2023-08-20T12:38:57;2.95;;;0.40;;
9559;SDS011;4818;50.860;4.648;2023-08-20T12:41:23;2.95;;;0.40;;
9559;SDS011;4818;50.860;4.648;2023-08-20T12:43:49;2.17;;;0.32;;
9559;SDS011;4818;50.860;4.648;2023-08-20T12:46:16;4.13;;;0.32;;
9559;SDS011;4818;50.860;4.648;2023-08-20T12:48:42;2.88;;;0.30;;
9559;SDS011;4818;50.860;4.648;2023-08-20T12:51:09;2.28;;;0.30;;
9559;SDS011;4818;50.860;4.648;2023-08-20T12:53:38;2.75;;;0.30;;
9559;SDS011;4818;50.860;4.648;2023-08-20T12:56:05;1.05;;;0.20;;
9559;SDS011;4818;50.860;4.648;2023-08-20T12:58:31;2.08;;;0.30;;
9559;SDS011;4818;50.860;4.648;2023-08-20T13:00:57;1.63;;;0.30;;
9559;SDS011;4818;50.860;4.648;2023-08-20T13:03:24;2.70;;;0.40;;
9559;SDS011;4818;50.860;4.648;2023-08-20T13:05:53;2.00;;;0.28;;
9559;SDS011;4818;50.860;4.648;2023-08-20T13:08:22;2.08;;;0.30;;
9559;SDS011;4818;50.860;4.648;2023-08-20T13:10:55;1.65;;;0.50;;
9559;SDS011;4818;50.860;4.648;2023-08-20T13:13:21;1.33;;;0.40;;
9559;SDS011;4818;50.860;4.648;2023-08-20T13:15:48;2.08;;;0.30;;
9559;SDS011;4818;50.860;4.648;2023-08-20T13:18:15;2.47;;;0.43;;
9559;SDS011;4818;50.860;4.648;2023-08-20T13:20:44;3.00;;;0.30;;
9559;SDS011;4818;50.860;4.648;2023-08-20T13:23:11;3.72;;;0.40;;
9559;SDS011;4818;50.860;4.648;2023-08-20T13:25:38;1.00;;;0.40;;
9559;SDS011;4818;50.860;4.648;2023-08-20T13:28:06;3.25;;;0.40;;
9559;SDS011;4818;50.860;4.648;2023-08-20T13:30:33;2.17;;;0.40;;
9559;SDS011;4818;50.860;4.648;2023-08-20T13:32:59;0.73;;;0.20;;
9559;SDS011;4818;50.860;4.648;2023-08-20T13:35:26;1.85;;;0.20;;
9559;SDS011;4818;50.860;4.648;2023-08-20T13:37:52;2.60;;;0.43;;
9559;SDS011;4818;50.860;4.648;2023-08-20T13:40:19;3.42;;;0.30;;
9559;SDS011;4818;50.860;4.648;2023-08-20T13:42:46;3.67;;;0.30;;
9559;SDS011;4818;50.860;4.648;2023-08-20T13:45:12;3.40;;;0.32;;
9559;SDS011;4818;50.860;4.648;2023-08-20T13:47:38;1.63;;;0.40;;
9559;SDS011;4818;50.860;4.648;2023-08-20T13:50:04;2.42;;;0.30;;
9559;SDS011;4818;50.860;4.648;2023-08-20T13:52:31;3.50;;;0.52;;
9559;SDS011;4818;50.860;4.648;2023-08-20T13:54:57;4.32;;;0.60;;
9559;SDS011;4818;50.860;4.648;2023-08-20T13:57:23;2.63;;;0.30;;
9559;SDS011;4818;50.860;4.648;2023-08-20T13:59:50;2.25;;;0.40;;
9559;SDS011;4818;50.860;4.648;2023-08-20T14:02:16;1.42;;;0.50;;
9559;SDS011;4818;50.860;4.648;2023-08-20T14:04:42;1.92;;;0.30;;
9559;SDS011;4818;50.860;4.648;2023-08-20T14:07:09;1.73;;;0.30;;
9559;SDS011;4818;50.860;4.648;2023-08-20T14:09:35;2.03;;;0.40;;
9559;SDS011;4818;50.860;4.648;2023-08-20T14:12:01;2.10;;;0.30;;
9559;SDS011;4818;50.860;4.648;2023-08-20T14:14:28;1.90;;;0.32;;
9559;SDS011;4818;50.860;4.648;2023-08-20T14:16:54;2.17;;;0.30;;
9559;SDS011;4818;50.860;4.648;2023-08-20T14:19:21;1.92;;;0.30;;
9559;SDS011;4818;50.860;4.648;2023-08-20T14:21:47;2.17;;;0.30;;
9559;SDS011;4818;50.860;4.648;2023-08-20T14:24:16;2.55;;;0.30;;
9559;SDS011;4818;50.860;4.648;2023-08-20T14:26:42;2.03;;;0.40;;
9559;SDS011;4818;50.860;4.648;2023-08-20T14:29:09;1.83;;;0.50;;
9559;SDS011;4818;50.860;4.648;2023-08-20T14:31:35;1.73;;;0.30;;
9559;SDS011;4818;50.860;4.648;2023-08-20T14:34:07;1.15;;;0.30;;
9559;SDS011;4818;50.860;4.648;2023-08-20T14:36:34;1.10;;;0.20;;
9559;SDS011;4818;50.860;4.648;2023-08-20T14:39:00;2.75;;;0.30;;
9559;SDS011;4818;50.860;4.648;2023-08-20T14:41:28;2.83;;;0.40;;
9559;SDS011;4818;50.860;4.648;2023-08-20T14:43:54;3.83;;;0.52;;
9559;SDS011;4818;50.860;4.648;2023-08-20T14:46:20;2.35;;;0.40;;
9559;SDS011;4818;50.860;4.648;2023-08-20T14:48:47;2.88;;;0.40;;
9559;SDS011;4818;50.860;4.648;2023-08-20T14:51:13;3.75;;;0.30;;
9559;SDS011;4818;50.860;4.648;2023-08-20T14:53:41;1.45;;;0.30;;
9559;SDS011;4818;50.860;4.648;2023-08-20T14:56:08;2.40;;;0.30;;
9559;SDS011;4818;50.860;4.648;2023-08-20T14:58:34;1.10;;;0.30;;
9559;SDS011;4818;50.860;4.648;2023-08-20T15:01:00;1.27;;;0.25;;
9559;SDS011;4818;50.860;4.648;2023-08-20T15:03:28;1.52;;;0.38;;
9559;SDS011;4818;50.860;4.648;2023-08-20T15:05:56;4.72;;;0.47;;
9559;SDS011;4818;50.860;4.648;2023-08-20T15:08:22;4.38;;;0.30;;
9559;SDS011;4818;50.860;4.648;2023-08-20T15:10:59;1.73;;;0.30;;
9559;SDS011;4818;50.860;4.648;2023-08-20T15:13:28;2.10;;;0.23;;
9559;SDS011;4818;50.860;4.648;2023-08-20T15:15:55;1.58;;;0.40;;
9559;SDS011;4818;50.860;4.648;2023-08-20T15:18:21;3.20;;;0.40;;
9559;SDS011;4818;50.860;4.648;2023-08-20T15:20:57;3.20;;;0.43;;
9559;SDS011;4818;50.860;4.648;2023-08-20T15:23:24;1.00;;;0.25;;
9559;SDS011;4818;50.860;4.648;2023-08-20T15:25:54;1.98;;;0.32;;
9559;SDS011;4818;50.860;4.648;2023-08-20T15:28:24;1.90;;;0.30;;
9559;SDS011;4818;50.860;4.648;2023-08-20T15:30:51;2.67;;;0.40;;
9559;SDS011;4818;50.860;4.648;2023-08-20T15:33:18;2.88;;;0.30;;